Time,TemperatureF,DewpointF,PressureIn,WindDirection,WindDirectionDegrees,WindSpeedMPH,WindSpeedGustMPH,Humidity,HourlyPrecipIn,Conditions,Clouds,dailyrainin,SoftwareType,DateUTC
2013-06-10 12:56:00,67.1,65.3,30.06,ESE,110,2.0,2.0,94,0.37,,,1.12,Wunderground v.1.15,2013-06-10 16:56:00,
2013-06-10 13:01:00,66.8,65.3,30.06,ESE,110,1.0,1.0,95,0.10,,,1.12,Wunderground v.1.15,2013-06-10 17:01:00,
2013-06-10 13:06:00,66.1,64.3,30.07,ESE,110,0.0,1.0,94,0.05,,,1.12,Wunderground v.1.15,2013-06-10 17:06:00,
2013-06-10 13:16:00,65.1,63.3,30.07,ESE,110,0.0,0.0,94,0.00,,,1.13,Wunderground v.1.15,2013-06-10 17:16:00,
2013-06-10 13:21:00,64.9,63.4,30.06,ESE,110,0.0,0.0,95,0.11,,,1.14,Wunderground v.1.15,2013-06-10 17:21:00,
2013-06-10 13:26:00,64.7,63.2,30.05,ESE,110,0.0,0.0,95,0.14,,,1.15,Wunderground v.1.15,2013-06-10 17:26:00,
2013-06-10 13:31:00,64.4,62.9,30.03,ESE,110,0.0,0.0,95,0.09,,,1.15,Wunderground v.1.15,2013-06-10 17:31:00,
2013-06-10 13:41:00,64.4,63.2,30.03,ESE,110,0.0,0.0,96,0.04,,,1.15,Wunderground v.1.15,2013-06-10 17:41:00,
2013-06-10 13:46:00,64.7,63.5,30.04,ESE,110,0.0,0.0,96,0.00,,,1.15,Wunderground v.1.15,2013-06-10 17:46:00,
2013-06-10 13:51:00,65.0,63.5,30.04,ESE,110,0.0,5.0,95,0.00,,,1.15,Wunderground v.1.15,2013-06-10 17:51:00,
2013-06-10 13:56:00,65.2,63.4,30.04,ESE,110,0.0,5.0,94,0.00,,,1.15,Wunderground v.1.15,2013-06-10 17:56:00,
2013-06-10 14:06:00,65.6,63.5,30.05,ESE,110,0.0,5.0,93,0.00,,,1.15,Wunderground v.1.15,2013-06-10 18:06:00,
2013-06-10 14:11:00,65.9,64.1,30.05,ESE,110,0.0,5.0,94,0.00,,,1.15,Wunderground v.1.15,2013-06-10 18:11:00,
2013-06-10 14:16:00,66.0,63.9,30.04,ESE,110,0.0,5.0,93,0.00,,,1.15,Wunderground v.1.15,2013-06-10 18:16:00,
2013-06-10 14:21:00,66.5,64.7,30.04,ESE,110,0.0,5.0,94,0.00,,,1.15,Wunderground v.1.15,2013-06-10 18:21:00,
2013-06-10 14:36:00,67.9,65.2,30.04,ESE,110,0.0,5.0,91,0.00,,,1.15,Wunderground v.1.15,2013-06-10 18:36:00,
2013-06-10 14:41:00,68.2,64.8,30.04,ESE,110,0.0,5.0,89,0.00,,,1.15,Wunderground v.1.15,2013-06-10 18:41:00,
2013-06-10 14:46:00,68.9,64.5,30.03,ESE,110,0.0,5.0,86,0.00,,,1.15,Wunderground v.1.15,2013-06-10 18:46:00,
2013-06-10 14:51:00,69.7,66.0,30.03,ESE,110,0.0,5.0,88,0.00,,,1.15,Wunderground v.1.15,2013-06-10 18:51:00,
2013-06-10 15:01:00,70.9,65.8,30.03,ESE,110,0.0,5.0,84,0.00,,,1.15,Wunderground v.1.15,2013-06-10 19:01:00,
2013-06-10 15:06:00,71.5,66.8,30.03,ESE,110,0.0,5.0,85,0.00,,,1.15,Wunderground v.1.15,2013-06-10 19:06:00,
2013-06-10 15:11:00,71.8,65.3,30.03,ESE,110,0.0,5.0,80,0.00,,,1.15,Wunderground v.1.15,2013-06-10 19:11:00,
2013-06-10 15:16:00,72.1,66.6,30.03,ESE,110,0.0,5.0,83,0.00,,,1.15,Wunderground v.1.15,2013-06-10 19:16:00,
2013-06-10 15:21:00,72.5,65.6,30.03,ESE,110,0.0,5.0,79,0.00,,,1.15,Wunderground v.1.15,2013-06-10 19:21:00,
2013-06-10 15:26:00,73.0,67.2,30.03,ESE,110,0.0,5.0,82,0.00,,,1.15,Wunderground v.1.15,2013-06-10 19:26:00,
2013-06-10 15:31:00,73.5,66.6,30.03,ESE,110,0.0,5.0,79,0.00,,,1.15,Wunderground v.1.15,2013-06-10 19:31:00,
2013-06-10 15:41:00,74.5,66.1,30.03,ESE,110,0.0,5.0,75,0.00,,,1.15,Wunderground v.1.15,2013-06-10 19:41:00,
2013-06-10 15:46:00,74.5,63.7,30.02,ESE,110,1.0,5.0,69,0.00,,,1.15,Wunderground v.1.15,2013-06-10 19:46:00,
2013-06-10 15:51:00,74.1,64.1,30.02,ESE,110,2.0,2.0,71,0.00,,,1.15,Wunderground v.1.15,2013-06-10 19:51:00,
2013-06-10 15:56:00,73.9,64.7,30.02,ESE,110,1.0,5.0,73,0.00,,,1.15,Wunderground v.1.15,2013-06-10 19:56:00,
2013-06-10 16:01:00,74.0,62.3,30.02,ESE,110,0.0,5.0,67,0.00,,,1.15,Wunderground v.1.15,2013-06-10 20:01:00,
2013-06-10 16:11:00,74.4,64.8,30.01,ESE,110,2.0,2.0,72,0.00,,,1.15,Wunderground v.1.15,2013-06-10 20:11:00,
2013-06-10 16:16:00,74.4,64.0,30.01,ESE,110,1.0,5.0,70,0.00,,,1.15,Wunderground v.1.15,2013-06-10 20:16:00,
2013-06-10 16:21:00,74.3,63.5,30.01,ESE,110,1.0,5.0,69,0.00,,,1.15,Wunderground v.1.15,2013-06-10 20:21:00,
2013-06-10 16:26:00,74.0,64.0,30.01,ESE,110,0.0,5.0,71,0.00,,,1.15,Wunderground v.1.15,2013-06-10 20:26:00,
2013-06-10 16:36:00,73.1,63.9,30.01,ESE,110,1.0,5.0,73,0.00,,,1.15,Wunderground v.1.15,2013-06-10 20:36:00,
2013-06-10 16:41:00,72.7,63.9,30.01,ESE,110,1.0,1.0,74,0.00,,,1.15,Wunderground v.1.15,2013-06-10 20:41:00,
2013-06-10 16:46:00,72.4,63.6,30.01,ESE,110,0.0,5.0,74,0.00,,,1.15,Wunderground v.1.15,2013-06-10 20:46:00,
2013-06-10 16:56:00,72.1,63.4,30.01,ESE,110,0.0,5.0,74,0.00,,,1.15,Wunderground v.1.15,2013-06-10 20:56:00,
2013-06-10 17:01:00,72.0,64.0,30.01,ESE,110,0.0,5.0,76,0.00,,,1.15,Wunderground v.1.15,2013-06-10 21:01:00,
2013-06-10 17:06:00,71.7,63.4,30.01,ESE,110,0.0,5.0,75,0.00,,,1.15,Wunderground v.1.15,2013-06-10 21:06:00,
2013-06-10 17:11:00,71.5,62.8,30.01,ESE,110,0.0,5.0,74,0.00,,,1.15,Wunderground v.1.15,2013-06-10 21:11:00,
2013-06-10 17:16:00,71.1,62.0,30.01,ESE,110,0.0,5.0,73,0.00,,,1.15,Wunderground v.1.15,2013-06-10 21:16:00,
2013-06-10 17:26:00,70.8,64.0,30.00,ESE,110,0.0,5.0,79,0.00,,,1.15,Wunderground v.1.15,2013-06-10 21:26:00,
2013-06-10 17:36:00,70.8,62.9,30.01,ESE,110,0.0,5.0,76,0.00,,,1.15,Wunderground v.1.15,2013-06-10 21:36:00,
2013-06-10 17:41:00,71.0,64.2,30.01,ESE,110,0.0,5.0,79,0.00,,,1.15,Wunderground v.1.15,2013-06-10 21:41:00,
2013-06-10 17:46:00,71.1,64.3,30.01,ESE,110,0.0,5.0,79,0.00,,,1.15,Wunderground v.1.15,2013-06-10 21:46:00,
2013-06-10 17:51:00,71.0,63.8,30.02,ESE,110,0.0,5.0,78,0.00,,,1.15,Wunderground v.1.15,2013-06-10 21:51:00,
2013-06-10 17:56:00,70.9,63.7,30.02,ESE,110,0.0,5.0,78,0.00,,,1.15,Wunderground v.1.15,2013-06-10 21:56:00,
2013-06-10 18:06:00,70.7,64.2,30.02,ESE,110,0.0,5.0,80,0.00,,,1.15,Wunderground v.1.15,2013-06-10 22:06:00,
2013-06-10 18:11:00,70.6,64.1,30.02,ESE,110,0.0,5.0,80,0.00,,,1.15,Wunderground v.1.15,2013-06-10 22:11:00,
2013-06-10 18:21:00,70.4,64.6,30.01,ESE,110,0.0,5.0,82,0.00,,,1.15,Wunderground v.1.15,2013-06-10 22:21:00,
2013-06-10 18:26:00,70.5,65.4,30.01,ESE,110,0.0,5.0,84,0.00,,,1.15,Wunderground v.1.15,2013-06-10 22:26:00,
2013-06-10 18:31:00,70.5,65.4,30.01,ESE,110,0.0,5.0,84,0.00,,,1.15,Wunderground v.1.15,2013-06-10 22:31:00,
2013-06-10 18:41:00,70.4,65.3,30.01,ESE,110,0.0,5.0,84,0.00,,,1.15,Wunderground v.1.15,2013-06-10 22:41:00,
2013-06-10 18:46:00,70.4,65.0,30.01,ESE,110,0.0,5.0,83,0.00,,,1.15,Wunderground v.1.15,2013-06-10 22:46:00,
2013-06-10 18:51:00,70.4,65.0,30.01,ESE,110,0.0,5.0,83,0.00,,,1.15,Wunderground v.1.15,2013-06-10 22:51:00,
2013-06-10 18:56:00,70.4,65.3,30.01,ESE,110,0.0,5.0,84,0.00,,,1.15,Wunderground v.1.15,2013-06-10 22:56:00,
2013-06-10 19:01:00,70.3,65.2,30.01,ESE,110,0.0,5.0,84,0.00,,,1.15,Wunderground v.1.15,2013-06-10 23:01:00,
2013-06-10 19:11:00,70.0,64.9,30.01,ESE,110,0.0,5.0,84,0.00,,,1.15,Wunderground v.1.15,2013-06-10 23:11:00,
2013-06-10 19:16:00,69.8,64.7,30.01,ESE,110,0.0,5.0,84,0.00,,,1.15,Wunderground v.1.15,2013-06-10 23:16:00,
2013-06-10 19:21:00,69.7,64.3,30.01,ESE,110,0.0,5.0,83,0.00,,,1.15,Wunderground v.1.15,2013-06-10 23:21:00,
2013-06-10 19:26:00,69.7,64.3,30.01,ESE,110,0.0,5.0,83,0.00,,,1.15,Wunderground v.1.15,2013-06-10 23:26:00,
2013-06-10 19:31:00,69.6,65.2,30.00,ESE,110,0.0,5.0,86,0.00,,,1.15,Wunderground v.1.15,2013-06-10 23:31:00,
2013-06-10 19:41:00,68.9,64.2,30.00,ESE,110,0.0,5.0,85,0.00,,,1.15,Wunderground v.1.15,2013-06-10 23:41:00,
2013-06-10 19:46:00,68.7,64.7,30.00,ESE,110,0.0,5.0,87,0.00,,,1.15,Wunderground v.1.15,2013-06-10 23:46:00,
2013-06-10 19:56:00,68.4,64.4,30.00,ESE,110,0.0,5.0,87,0.00,,,1.15,Wunderground v.1.15,2013-06-10 23:56:00,
2013-06-10 20:01:00,68.2,64.2,30.00,ESE,110,0.0,5.0,87,0.00,,,1.15,Wunderground v.1.15,2013-06-11 00:01:00,
2013-06-10 20:06:00,67.9,64.2,30.00,ESE,110,0.0,5.0,88,0.00,,,1.15,Wunderground v.1.15,2013-06-11 00:06:00,
2013-06-10 20:11:00,67.8,64.1,30.01,ESE,110,0.0,5.0,88,0.00,,,1.15,Wunderground v.1.15,2013-06-11 00:11:00,
2013-06-10 20:16:00,67.6,64.2,30.01,ESE,110,0.0,5.0,89,0.00,,,1.15,Wunderground v.1.15,2013-06-11 00:16:00,
2013-06-10 20:26:00,67.3,64.3,30.01,ESE,110,0.0,5.0,90,0.00,,,1.15,Wunderground v.1.15,2013-06-11 00:26:00,
2013-06-10 20:36:00,66.9,63.9,30.01,ESE,110,0.0,5.0,90,0.00,,,1.15,Wunderground v.1.15,2013-06-11 00:36:00,
2013-06-10 20:41:00,66.8,64.1,30.01,ESE,110,0.0,5.0,91,0.00,,,1.15,Wunderground v.1.15,2013-06-11 00:41:00,
2013-06-10 20:46:00,66.5,63.8,30.01,ESE,110,0.0,5.0,91,0.00,,,1.15,Wunderground v.1.15,2013-06-11 00:46:00,
2013-06-10 20:51:00,66.4,63.7,30.00,ESE,110,0.0,5.0,91,0.00,,,1.15,Wunderground v.1.15,2013-06-11 00:51:00,
2013-06-10 20:56:00,66.3,63.6,30.00,ESE,110,0.0,5.0,91,0.00,,,1.15,Wunderground v.1.15,2013-06-11 00:56:00,
2013-06-10 21:06:00,65.9,63.5,30.01,ESE,110,0.0,5.0,92,0.00,,,1.15,Wunderground v.1.15,2013-06-11 01:06:00,
2013-06-10 21:16:00,65.7,63.3,30.01,ESE,110,0.0,5.0,92,0.00,,,1.15,Wunderground v.1.15,2013-06-11 01:16:00,
2013-06-10 21:21:00,65.6,63.2,30.02,ESE,110,0.0,5.0,92,0.00,,,1.15,Wunderground v.1.15,2013-06-11 01:21:00,
2013-06-10 21:26:00,65.4,63.3,30.02,ESE,110,0.0,5.0,93,0.00,,,1.15,Wunderground v.1.15,2013-06-11 01:26:00,
2013-06-10 21:31:00,65.3,63.2,30.03,ESE,110,0.0,5.0,93,0.00,,,1.15,Wunderground v.1.15,2013-06-11 01:31:00,
2013-06-10 21:36:00,65.2,63.1,30.03,ESE,110,0.0,5.0,93,0.00,,,1.15,Wunderground v.1.15,2013-06-11 01:36:00,
2013-06-10 21:46:00,65.1,63.3,30.04,ESE,110,0.0,5.0,94,0.00,,,1.15,Wunderground v.1.15,2013-06-11 01:46:00,
2013-06-10 21:51:00,65.0,63.2,30.04,ESE,110,0.0,5.0,94,0.00,,,1.15,Wunderground v.1.15,2013-06-11 01:51:00,
2013-06-10 22:01:00,64.8,63.0,30.04,ESE,110,0.0,5.0,94,0.00,,,1.15,Wunderground v.1.15,2013-06-11 02:01:00,
2013-06-10 22:06:00,64.6,62.8,30.04,ESE,110,0.0,5.0,94,0.00,,,1.15,Wunderground v.1.15,2013-06-11 02:06:00,
2013-06-10 22:11:00,64.6,62.8,30.05,ESE,110,0.0,5.0,94,0.00,,,1.15,Wunderground v.1.15,2013-06-11 02:11:00,
2013-06-10 22:16:00,64.7,62.9,30.05,ESE,110,0.0,5.0,94,0.00,,,1.15,Wunderground v.1.15,2013-06-11 02:16:00,
2013-06-10 22:21:00,64.7,63.2,30.05,ESE,110,0.0,5.0,95,0.00,,,1.15,Wunderground v.1.15,2013-06-11 02:21:00,
2013-06-10 22:26:00,64.7,62.9,30.06,ESE,110,0.0,5.0,94,0.00,,,1.15,Wunderground v.1.15,2013-06-11 02:26:00,
2013-06-10 22:31:00,64.8,63.0,30.06,ESE,110,0.0,5.0,94,0.00,,,1.15,Wunderground v.1.15,2013-06-11 02:31:00,
2013-06-10 22:41:00,64.9,63.1,30.07,ESE,110,0.0,5.0,94,0.00,,,1.15,Wunderground v.1.15,2013-06-11 02:41:00,
2013-06-10 22:46:00,64.9,63.1,30.07,ESE,110,0.0,5.0,94,0.00,,,1.15,Wunderground v.1.15,2013-06-11 02:46:00,
2013-06-10 22:51:00,64.9,63.1,30.07,ESE,110,0.0,5.0,94,0.00,,,1.15,Wunderground v.1.15,2013-06-11 02:51:00,
2013-06-10 22:56:00,65.0,63.2,30.06,ESE,110,0.0,5.0,94,0.00,,,1.15,Wunderground v.1.15,2013-06-11 02:56:00,
2013-06-10 23:01:00,65.1,63.3,30.06,ESE,110,0.0,5.0,94,0.00,,,1.15,Wunderground v.1.15,2013-06-11 03:01:00,
2013-06-10 23:11:00,65.1,63.3,30.06,ESE,110,0.0,5.0,94,0.00,,,1.15,Wunderground v.1.15,2013-06-11 03:11:00,
2013-06-10 23:16:00,65.1,63.3,30.06,ESE,110,0.0,5.0,94,0.00,,,1.15,Wunderground v.1.15,2013-06-11 03:16:00,
2013-06-10 23:21:00,65.0,63.2,30.06,ESE,110,0.0,5.0,94,0.00,,,1.15,Wunderground v.1.15,2013-06-11 03:21:00,
2013-06-10 23:31:00,65.1,63.3,30.06,ESE,110,0.0,5.0,94,0.00,,,1.15,Wunderground v.1.15,2013-06-11 03:31:00,
2013-06-10 23:36:00,65.2,63.4,30.06,ESE,110,0.0,5.0,94,0.00,,,1.15,Wunderground v.1.15,2013-06-11 03:36:00,
2013-06-10 23:41:00,65.2,63.4,30.06,ESE,110,0.0,5.0,94,0.00,,,1.15,Wunderground v.1.15,2013-06-11 03:41:00,
2013-06-10 23:46:00,65.2,63.4,30.06,ESE,110,0.0,5.0,94,0.00,,,1.15,Wunderground v.1.15,2013-06-11 03:46:00,
2013-06-10 23:56:00,65.2,63.4,30.06,ESE,110,0.0,5.0,94,0.00,,,1.15,Wunderground v.1.15,2013-06-11 03:56:00,